createdAt,value
2024-05-09T00:01:00.154Z,15.82
2024-05-09T00:06:00.214Z,15.77
2024-05-09T00:11:00.253Z,15.78
2024-05-09T00:16:00.164Z,15.85
2024-05-09T00:21:00.146Z,15.8
2024-05-09T00:26:00.439Z,15.9
2024-05-09T00:31:00.150Z,15.98
2024-05-09T00:36:00.168Z,15.86
2024-05-09T00:41:00.193Z,15.81
2024-05-09T00:46:00.154Z,15.79
2024-05-09T00:51:00.170Z,15.71
2024-05-09T00:56:00.209Z,15.75
2024-05-09T01:01:00.504Z,15.71
2024-05-09T01:06:00.310Z,15.76
2024-05-09T01:11:00.163Z,15.76
2024-05-09T01:16:00.181Z,15.56
2024-05-09T01:21:00.165Z,15.43
2024-05-09T01:26:00.180Z,15.26
2024-05-09T01:31:00.207Z,15.05
2024-05-09T01:36:00.213Z,14.92
2024-05-09T01:41:00.260Z,14.63
2024-05-09T01:46:00.172Z,14.43
2024-05-09T01:51:00.407Z,14.27
2024-05-09T01:56:00.190Z,14.23
2024-05-09T02:01:00.193Z,14.14
2024-05-09T02:06:00.195Z,14.06
2024-05-09T02:11:00.248Z,13.88
2024-05-09T02:16:00.551Z,13.76
2024-05-09T02:21:00.435Z,13.87
2024-05-09T02:26:00.200Z,14.04
2024-05-09T02:31:00.203Z,13.93
2024-05-09T02:36:00.185Z,13.81
2024-05-09T02:41:00.252Z,13.73
2024-05-09T02:46:00.189Z,13.66
2024-05-09T02:51:00.206Z,13.59
2024-05-09T02:56:00.209Z,13.53
2024-05-09T03:01:00.344Z,13.4
2024-05-09T03:06:00.287Z,13.31
2024-05-09T03:11:00.288Z,13.22
2024-05-09T03:16:00.213Z,13.16
2024-05-09T03:21:00.213Z,13.1
2024-05-09T03:26:00.198Z,12.94
2024-05-09T03:31:00.460Z,12.83
2024-05-09T03:36:00.209Z,12.81
2024-05-09T03:41:00.219Z,12.77
2024-05-09T03:46:00.218Z,12.69
2024-05-09T03:51:00.204Z,12.58
2024-05-09T03:56:00.240Z,12.55
2024-05-09T04:01:00.207Z,12.46
2024-05-09T04:06:00.223Z,12.47
2024-05-09T04:11:00.224Z,12.56
2024-05-09T04:16:00.211Z,12.4
2024-05-09T04:21:00.260Z,12.32
2024-05-09T04:26:00.239Z,12.17
2024-05-09T04:31:00.230Z,12.19
2024-05-09T04:36:05.949Z,12.21
2024-05-09T04:41:00.218Z,12.26
2024-05-09T04:46:00.236Z,12.37
2024-05-09T04:51:00.220Z,12.54
2024-05-09T04:56:00.234Z,12.56
2024-05-09T05:01:00.237Z,12.68
2024-05-09T05:06:00.239Z,12.88
2024-05-09T05:11:00.488Z,13.02
2024-05-09T05:16:00.241Z,13.1
2024-05-09T05:21:00.528Z,13.34
2024-05-09T05:26:00.288Z,13.42
2024-05-09T05:31:00.246Z,13.73
2024-05-09T05:36:00.568Z,14.11
2024-05-09T05:41:00.231Z,14.4
2024-05-09T05:46:00.246Z,14.57
2024-05-09T05:51:00.234Z,14.7
2024-05-09T05:56:00.252Z,14.93
2024-05-09T06:01:00.272Z,15.2
2024-05-09T06:06:00.238Z,15.49
2024-05-09T06:11:00.253Z,15.61
2024-05-09T06:16:00.241Z,15.9
2024-05-09T06:21:00.580Z,16.31
2024-05-09T06:26:00.430Z,16.67
2024-05-09T06:31:00.245Z,16.9
2024-05-09T06:36:00.350Z,17.25
2024-05-09T06:41:00.248Z,17.48
2024-05-09T06:46:00.267Z,17.62
2024-05-09T06:51:00.267Z,17.86
2024-05-09T06:56:00.253Z,18.18
2024-05-09T07:01:00.353Z,18.15
2024-05-09T07:06:00.340Z,18.24
2024-05-09T07:11:00.275Z,18.64
2024-05-09T07:16:00.276Z,18.9
2024-05-09T07:21:00.263Z,18.99
2024-05-09T07:26:00.281Z,19.19
2024-05-09T07:31:00.520Z,19.18
2024-05-09T07:36:00.283Z,19.12
2024-05-09T07:41:00.285Z,19.24
2024-05-09T07:46:00.516Z,19.62
2024-05-09T07:51:00.291Z,19.6
2024-05-09T07:56:00.288Z,20.04
2024-05-09T08:01:00.290Z,20.25
2024-05-09T08:06:00.295Z,20.52
2024-05-09T08:11:00.296Z,21.14
2024-05-09T08:16:00.303Z,25.02
2024-05-09T08:21:00.283Z,33.07
2024-05-09T08:26:00.302Z,35.59
2024-05-09T08:31:00.304Z,34.18
2024-05-09T08:36:00.308Z,36.41
2024-05-09T08:41:00.312Z,37.14
2024-05-09T08:46:00.296Z,38.41
2024-05-09T08:51:00.315Z,37.48
2024-05-09T08:56:00.508Z,36.53
2024-05-09T09:01:00.321Z,35.24
2024-05-09T09:06:00.615Z,35.99
2024-05-09T09:11:00.310Z,37.65
2024-05-09T09:16:00.325Z,36.14
2024-05-09T09:21:00.315Z,35.34
2024-05-09T09:26:00.422Z,34.49
2024-05-09T09:31:00.335Z,35.32
2024-05-09T09:36:00.323Z,33.41
2024-05-09T09:41:00.342Z,29.74
2024-05-09T09:46:00.328Z,33.23
2024-05-09T09:51:00.348Z,34.25
2024-05-09T09:56:00.350Z,34.63
2024-05-09T10:01:00.522Z,34.65
2024-05-09T10:06:00.358Z,34.74
2024-05-09T10:11:00.342Z,29.75
2024-05-09T10:16:00.409Z,29.91
2024-05-09T10:21:00.363Z,29.39
2024-05-09T10:26:00.571Z,26.69
2024-05-09T10:31:00.371Z,28.96
2024-05-09T10:36:00.355Z,29.71
2024-05-09T10:41:00.681Z,26.33
2024-05-09T10:46:00.732Z,25.35
2024-05-09T10:51:00.380Z,26.64
2024-05-09T10:56:00.383Z,25.36
2024-05-09T11:01:00.378Z,26.35
2024-05-09T11:06:00.385Z,26.53
2024-05-09T11:11:00.390Z,26.83
2024-05-09T11:16:00.391Z,25.59
2024-05-09T11:21:00.394Z,27.54
2024-05-09T11:26:00.399Z,28.93
2024-05-09T11:31:00.397Z,28.53
2024-05-09T11:36:00.385Z,28.18
2024-05-09T11:41:00.404Z,27.99
2024-05-09T11:46:00.700Z,27.02
2024-05-09T11:51:00.469Z,27.21
2024-05-09T11:56:00.552Z,27.55
2024-05-09T12:01:00.623Z,27.21
2024-05-09T12:06:00.416Z,26.79
2024-05-09T12:11:00.417Z,27.9
2024-05-09T12:16:00.404Z,27.43
2024-05-09T12:21:00.420Z,27.25
2024-05-09T12:26:00.409Z,27.48
2024-05-09T12:31:00.428Z,27.02
2024-05-09T12:36:00.431Z,27.26
2024-05-09T12:41:00.416Z,27.17
2024-05-09T12:46:00.627Z,27.69
2024-05-09T12:51:00.423Z,27.82
2024-05-09T12:56:00.441Z,27.65
2024-05-09T13:01:00.442Z,28.06
2024-05-09T13:06:00.429Z,28.5
2024-05-09T13:11:00.460Z,27.73
2024-05-09T13:16:00.434Z,28.78
2024-05-09T13:21:00.451Z,28.75
2024-05-09T13:26:00.537Z,29.79
2024-05-09T13:31:00.441Z,30.31
2024-05-09T13:36:00.463Z,30.07
2024-05-09T13:41:00.447Z,29.61
2024-05-09T13:46:00.463Z,30.03
2024-05-09T13:51:00.468Z,30.24
2024-05-09T13:56:00.472Z,31.01
2024-05-09T14:01:00.475Z,31.3
2024-05-09T14:06:00.648Z,31.29
2024-05-09T14:11:00.570Z,32.29
2024-05-09T14:16:00.482Z,32.56
2024-05-09T14:21:00.502Z,32.38
2024-05-09T14:26:00.489Z,32.81
2024-05-09T14:31:00.474Z,32.28
2024-05-09T14:36:00.673Z,34.11
2024-05-09T14:41:00.498Z,33.34
2024-05-09T14:46:00.532Z,32.93
2024-05-09T14:51:00.505Z,34.25
2024-05-09T14:56:00.489Z,34.96
2024-05-09T15:01:00.528Z,34.05
2024-05-09T15:06:00.495Z,35.25
2024-05-09T15:11:00.604Z,34.73
2024-05-09T15:16:00.518Z,35.27
2024-05-09T15:21:00.503Z,35.15
2024-05-09T15:31:00.509Z,35.46
2024-05-09T15:36:00.641Z,35.34
2024-05-09T15:41:00.530Z,34.84
2024-05-09T15:46:00.518Z,33.5
2024-05-09T15:51:00.537Z,30.32
2024-05-09T15:56:00.525Z,33.05
2024-05-09T16:01:00.544Z,34.05
2024-05-09T16:06:00.691Z,34.93
2024-05-09T16:11:00.533Z,35.31
2024-05-09T16:16:00.554Z,34.43
2024-05-09T16:21:00.539Z,35.18
2024-05-09T16:26:00.559Z,34.58
2024-05-09T16:31:00.562Z,31.45
2024-05-09T16:36:00.548Z,28.99
2024-05-09T16:41:00.576Z,27.32
2024-05-09T16:46:00.554Z,26.9
2024-05-09T16:51:00.581Z,25.97
2024-05-09T16:56:00.574Z,25.62
2024-05-09T17:01:00.560Z,25.42
2024-05-09T17:06:00.749Z,24.86
2024-05-09T17:11:00.565Z,24.66
2024-05-09T17:16:00.584Z,24.47
2024-05-09T17:21:00.701Z,24.2
2024-05-09T17:26:00.651Z,23.8
2024-05-09T17:31:00.593Z,23.7
2024-05-09T17:36:00.577Z,23.67
2024-05-09T17:41:00.593Z,23.57
2024-05-09T17:46:00.737Z,23.16
2024-05-09T17:51:00.617Z,22.92
2024-05-09T17:56:00.660Z,22.85
2024-05-09T18:01:00.590Z,22.83
2024-05-09T18:06:00.605Z,22.61
2024-05-09T18:11:00.608Z,22.61
2024-05-09T18:16:00.613Z,22.52
2024-05-09T18:21:00.615Z,22.5
2024-05-09T18:26:00.599Z,22.28
2024-05-09T18:31:00.677Z,22.11
2024-05-09T18:36:00.604Z,21.82
2024-05-09T18:41:00.768Z,21.59
2024-05-09T18:46:00.626Z,21.25
2024-05-09T18:51:00.861Z,20.87
2024-05-09T18:56:00.627Z,20.43
2024-05-09T19:01:00.613Z,20.33
2024-05-09T19:06:00.632Z,19.7
2024-05-09T19:11:00.633Z,19.36
2024-05-09T19:16:00.645Z,19.45
2024-05-09T19:21:00.793Z,19.37
2024-05-09T19:31:00.641Z,18.82
2024-05-09T19:36:00.642Z,18.74
2024-05-09T19:41:00.629Z,18.53
2024-05-09T19:46:00.648Z,18.44
2024-05-09T19:56:00.679Z,18.08
2024-05-09T20:01:00.652Z,17.93
2024-05-09T20:06:00.861Z,17.81
2024-05-09T20:11:11.832Z,17.62
2024-05-09T20:16:07.217Z,17.5
2024-05-09T20:21:06.241Z,17.33
2024-05-09T20:26:00.663Z,17.14
2024-05-09T20:31:00.648Z,16.94
2024-05-09T20:36:00.949Z,16.65
2024-05-09T20:41:00.649Z,16.5
2024-05-09T20:46:06.258Z,16.37
2024-05-09T20:51:00.677Z,16.32
2024-05-09T20:56:00.654Z,16.18
2024-05-09T21:01:00.672Z,16.1
2024-05-09T21:06:00.657Z,15.89
2024-05-09T21:11:00.867Z,15.67
2024-05-09T21:16:00.813Z,15.45
2024-05-09T21:21:00.662Z,15.28
2024-05-09T21:31:00.665Z,15.11
2024-05-09T21:36:00.691Z,14.96
2024-05-09T21:41:00.760Z,14.82
2024-05-09T21:46:00.840Z,14.62
2024-05-09T21:51:00.690Z,14.62
2024-05-09T21:56:00.673Z,14.6
2024-05-09T22:01:00.690Z,14.54
2024-05-09T22:06:00.693Z,14.6
2024-05-09T22:11:00.695Z,14.52
2024-05-09T22:16:00.959Z,14.32
2024-05-09T22:21:01.031Z,14.33
2024-05-09T22:26:07.235Z,14.31
2024-05-09T22:31:00.999Z,14.24
2024-05-09T22:36:00.864Z,14.2
2024-05-09T22:41:00.898Z,13.98
2024-05-09T22:46:00.686Z,13.83
2024-05-09T22:51:00.714Z,13.79
2024-05-09T22:56:00.705Z,13.66
2024-05-09T23:01:00.704Z,13.57
2024-05-09T23:06:00.727Z,13.44
2024-05-09T23:11:00.693Z,13.36
2024-05-09T23:16:00.708Z,13.2
2024-05-09T23:21:00.695Z,13.18
2024-05-09T23:26:06.301Z,13.02
2024-05-09T23:31:00.716Z,13.04
2024-05-09T23:36:00.699Z,13.04
2024-05-09T23:41:00.717Z,12.97
2024-05-09T23:46:00.981Z,12.93
2024-05-09T23:51:00.965Z,12.76
2024-05-09T23:56:00.840Z,12.64
